sensor_id;sensor_type;location;lat;lon;timestamp;P1;P2;P0
73687;PMS7003;62257;48.376;-4.378;2023-02-04T00:01:04;2.25;2.00;2.00
73687;PMS7003;62257;48.376;-4.378;2023-02-04T00:03:30;0.00;0.00;0.00
73687;PMS7003;62257;48.376;-4.378;2023-02-04T00:05:55;0.00;0.00;0.00
73687;PMS7003;62257;48.376;-4.378;2023-02-04T00:08:20;0.75;0.75;0.00
73687;PMS7003;62257;48.376;-4.378;2023-02-04T00:10:45;1.00;1.00;1.00
73687;PMS7003;62257;48.376;-4.378;2023-02-04T00:13:11;1.00;1.00;1.00
73687;PMS7003;62257;48.376;-4.378;2023-02-04T00:15:36;4.50;2.00;2.00
73687;PMS7003;62257;48.376;-4.378;2023-02-04T00:18:02;4.25;4.25;3.00
73687;PMS7003;62257;48.376;-4.378;2023-02-04T00:20:27;2.00;2.00;2.00
73687;PMS7003;62257;48.376;-4.378;2023-02-04T00:22:53;3.25;3.00;2.00
73687;PMS7003;62257;48.376;-4.378;2023-02-04T00:25:18;3.00;3.00;3.00
73687;PMS7003;62257;48.376;-4.378;2023-02-04T00:27:44;2.50;1.25;1.00
73687;PMS7003;62257;48.376;-4.378;2023-02-04T00:30:09;2.25;2.00;1.50
73687;PMS7003;62257;48.376;-4.378;2023-02-04T00:32:35;2.00;1.00;0.25
73687;PMS7003;62257;48.376;-4.378;2023-02-04T00:35:00;1.75;1.25;1.00
73687;PMS7003;62257;48.376;-4.378;2023-02-04T00:37:31;5.25;3.75;3.00
73687;PMS7003;62257;48.376;-4.378;2023-02-04T00:39:56;14.50;5.75;4.75
73687;PMS7003;62257;48.376;-4.378;2023-02-04T00:42:22;2.75;2.75;2.00
73687;PMS7003;62257;48.376;-4.378;2023-02-04T00:44:47;3.00;2.50;2.00
73687;PMS7003;62257;48.376;-4.378;2023-02-04T00:47:12;0.00;0.00;0.00
73687;PMS7003;62257;48.376;-4.378;2023-02-04T00:49:37;0.00;0.00;0.00
73687;PMS7003;62257;48.376;-4.378;2023-02-04T00:52:03;2.00;0.00;0.00
73687;PMS7003;62257;48.376;-4.378;2023-02-04T00:54:28;0.00;0.00;0.00
73687;PMS7003;62257;48.376;-4.378;2023-02-04T00:56:53;0.00;0.00;0.00
73687;PMS7003;62257;48.376;-4.378;2023-02-04T00:59:19;0.25;0.00;0.00
73687;PMS7003;62257;48.376;-4.378;2023-02-04T01:01:44;0.00;0.00;0.00
73687;PMS7003;62257;48.376;-4.378;2023-02-04T01:04:09;1.00;0.00;0.00
73687;PMS7003;62257;48.376;-4.378;2023-02-04T01:06:35;0.00;0.00;0.00
73687;PMS7003;62257;48.376;-4.378;2023-02-04T01:09:00;0.00;0.00;0.00
73687;PMS7003;62257;48.376;-4.378;2023-02-04T01:11:26;0.00;0.00;0.00
73687;PMS7003;62257;48.376;-4.378;2023-02-04T01:13:51;0.75;0.75;0.00
73687;PMS7003;62257;48.376;-4.378;2023-02-04T01:16:17;0.00;0.00;0.00
73687;PMS7003;62257;48.376;-4.378;2023-02-04T01:18:42;1.75;0.25;0.00
73687;PMS7003;62257;48.376;-4.378;2023-02-04T01:21:07;0.00;0.00;0.00
73687;PMS7003;62257;48.376;-4.378;2023-02-04T01:23:32;0.00;0.00;0.00
73687;PMS7003;62257;48.376;-4.378;2023-02-04T01:25:58;0.50;0.00;0.00
73687;PMS7003;62257;48.376;-4.378;2023-02-04T01:28:23;1.00;1.00;1.00
73687;PMS7003;62257;48.376;-4.378;2023-02-04T01:30:48;0.00;0.00;0.00
73687;PMS7003;62257;48.376;-4.378;2023-02-04T01:33:14;0.00;0.00;0.00
73687;PMS7003;62257;48.376;-4.378;2023-02-04T01:35:39;0.00;0.00;0.00
73687;PMS7003;62257;48.376;-4.378;2023-02-04T01:38:04;0.00;0.00;0.00
73687;PMS7003;62257;48.376;-4.378;2023-02-04T01:40:30;0.00;0.00;0.00
73687;PMS7003;62257;48.376;-4.378;2023-02-04T01:42:55;1.50;0.00;0.00
73687;PMS7003;62257;48.376;-4.378;2023-02-04T01:45:21;0.00;0.00;0.00
73687;PMS7003;62257;48.376;-4.378;2023-02-04T01:47:46;0.00;0.00;0.00
73687;PMS7003;62257;48.376;-4.378;2023-02-04T01:50:12;1.00;1.00;1.00
73687;PMS7003;62257;48.376;-4.378;2023-02-04T01:52:38;2.00;1.00;0.25
73687;PMS7003;62257;48.376;-4.378;2023-02-04T01:55:09;0.00;0.00;0.00
73687;PMS7003;62257;48.376;-4.378;2023-02-04T01:57:36;2.75;0.00;0.00
73687;PMS7003;62257;48.376;-4.378;2023-02-04T02:00:02;1.00;0.25;0.25
73687;PMS7003;62257;48.376;-4.378;2023-02-04T02:05:03;0.00;0.00;0.00
73687;PMS7003;62257;48.376;-4.378;2023-02-04T02:07:28;0.50;0.50;0.00
73687;PMS7003;62257;48.376;-4.378;2023-02-04T02:09:54;0.00;0.00;0.00
73687;PMS7003;62257;48.376;-4.378;2023-02-04T02:12:19;0.00;0.00;0.00
73687;PMS7003;62257;48.376;-4.378;2023-02-04T02:14:44;2.25;0.75;0.75
73687;PMS7003;62257;48.376;-4.378;2023-02-04T02:17:10;0.75;0.75;0.25
73687;PMS7003;62257;48.376;-4.378;2023-02-04T02:19:35;0.00;0.00;0.00
73687;PMS7003;62257;48.376;-4.378;2023-02-04T02:22:04;0.00;0.00;0.00
73687;PMS7003;62257;48.376;-4.378;2023-02-04T02:24:31;0.00;0.00;0.00
73687;PMS7003;62257;48.376;-4.378;2023-02-04T02:26:58;0.00;0.00;0.00
73687;PMS7003;62257;48.376;-4.378;2023-02-04T02:29:25;2.00;0.00;0.00
73687;PMS7003;62257;48.376;-4.378;2023-02-04T02:31:51;0.25;0.00;0.00
73687;PMS7003;62257;48.376;-4.378;2023-02-04T02:34:16;0.50;0.00;0.00
73687;PMS7003;62257;48.376;-4.378;2023-02-04T02:36:42;0.00;0.00;0.00
73687;PMS7003;62257;48.376;-4.378;2023-02-04T02:39:08;0.00;0.00;0.00
73687;PMS7003;62257;48.376;-4.378;2023-02-04T02:41:33;0.00;0.00;0.00
73687;PMS7003;62257;48.376;-4.378;2023-02-04T02:43:59;1.25;0.00;0.00
73687;PMS7003;62257;48.376;-4.378;2023-02-04T02:46:24;0.00;0.00;0.00
73687;PMS7003;62257;48.376;-4.378;2023-02-04T02:48:50;0.00;0.00;0.00
73687;PMS7003;62257;48.376;-4.378;2023-02-04T02:51:15;1.00;1.00;1.00
73687;PMS7003;62257;48.376;-4.378;2023-02-04T02:53:40;0.00;0.00;0.00
73687;PMS7003;62257;48.376;-4.378;2023-02-04T02:56:06;0.00;0.00;0.00
73687;PMS7003;62257;48.376;-4.378;2023-02-04T02:58:34;2.00;1.00;1.00
73687;PMS7003;62257;48.376;-4.378;2023-02-04T03:01:04;0.00;0.00;0.00
73687;PMS7003;62257;48.376;-4.378;2023-02-04T03:03:30;0.00;0.00;0.00
73687;PMS7003;62257;48.376;-4.378;2023-02-04T03:06:01;0.50;0.50;0.25
73687;PMS7003;62257;48.376;-4.378;2023-02-04T03:08:27;0.00;0.00;0.00
73687;PMS7003;62257;48.376;-4.378;2023-02-04T03:10:53;0.75;0.00;0.00
73687;PMS7003;62257;48.376;-4.378;2023-02-04T03:13:18;0.00;0.00;0.00
73687;PMS7003;62257;48.376;-4.378;2023-02-04T03:15:45;1.00;0.00;0.00
73687;PMS7003;62257;48.376;-4.378;2023-02-04T03:18:12;0.00;0.00;0.00
73687;PMS7003;62257;48.376;-4.378;2023-02-04T03:20:38;0.75;0.00;0.00
73687;PMS7003;62257;48.376;-4.378;2023-02-04T03:23:04;0.50;0.00;0.00
73687;PMS7003;62257;48.376;-4.378;2023-02-04T03:25:29;2.00;0.00;0.00
73687;PMS7003;62257;48.376;-4.378;2023-02-04T03:27:56;0.00;0.00;0.00
73687;PMS7003;62257;48.376;-4.378;2023-02-04T03:30:22;1.50;0.00;0.00
73687;PMS7003;62257;48.376;-4.378;2023-02-04T03:32:47;0.50;0.00;0.00
73687;PMS7003;62257;48.376;-4.378;2023-02-04T03:35:12;1.25;0.75;0.50
73687;PMS7003;62257;48.376;-4.378;2023-02-04T03:37:38;0.00;0.00;0.00
73687;PMS7003;62257;48.376;-4.378;2023-02-04T03:40:03;1.25;0.00;0.00
73687;PMS7003;62257;48.376;-4.378;2023-02-04T03:42:29;0.00;0.00;0.00
73687;PMS7003;62257;48.376;-4.378;2023-02-04T03:44:54;1.50;0.75;0.00
73687;PMS7003;62257;48.376;-4.378;2023-02-04T03:47:19;0.00;0.00;0.00
73687;PMS7003;62257;48.376;-4.378;2023-02-04T03:49:45;0.00;0.00;0.00
73687;PMS7003;62257;48.376;-4.378;2023-02-04T03:52:10;0.00;0.00;0.00
73687;PMS7003;62257;48.376;-4.378;2023-02-04T03:54:35;0.50;0.00;0.00
73687;PMS7003;62257;48.376;-4.378;2023-02-04T03:57:01;0.00;0.00;0.00
73687;PMS7003;62257;48.376;-4.378;2023-02-04T03:59:26;0.00;0.00;0.00
73687;PMS7003;62257;48.376;-4.378;2023-02-04T04:01:51;2.00;0.00;0.00
73687;PMS7003;62257;48.376;-4.378;2023-02-04T04:04:17;0.00;0.00;0.00
73687;PMS7003;62257;48.376;-4.378;2023-02-04T04:06:42;0.00;0.00;0.00
73687;PMS7003;62257;48.376;-4.378;2023-02-04T04:09:07;0.00;0.00;0.00
73687;PMS7003;62257;48.376;-4.378;2023-02-04T04:11:33;0.00;0.00;0.00
73687;PMS7003;62257;48.376;-4.378;2023-02-04T04:13:58;0.00;0.00;0.00
73687;PMS7003;62257;48.376;-4.378;2023-02-04T04:16:25;0.00;0.00;0.00
73687;PMS7003;62257;48.376;-4.378;2023-02-04T04:18:50;1.00;0.00;0.00
73687;PMS7003;62257;48.376;-4.378;2023-02-04T04:21:15;0.00;0.00;0.00
73687;PMS7003;62257;48.376;-4.378;2023-02-04T04:23:40;0.00;0.00;0.00
73687;PMS7003;62257;48.376;-4.378;2023-02-04T04:26:06;0.25;0.25;0.00
73687;PMS7003;62257;48.376;-4.378;2023-02-04T04:28:31;0.00;0.00;0.00
73687;PMS7003;62257;48.376;-4.378;2023-02-04T04:30:56;0.00;0.00;0.00
73687;PMS7003;62257;48.376;-4.378;2023-02-04T04:33:21;0.00;0.00;0.00
73687;PMS7003;62257;48.376;-4.378;2023-02-04T04:35:47;1.00;0.25;0.00
73687;PMS7003;62257;48.376;-4.378;2023-02-04T04:38:12;0.00;0.00;0.00
73687;PMS7003;62257;48.376;-4.378;2023-02-04T04:40:37;0.00;0.00;0.00
73687;PMS7003;62257;48.376;-4.378;2023-02-04T04:43:02;2.50;0.00;0.00
73687;PMS7003;62257;48.376;-4.378;2023-02-04T04:45:28;1.50;0.00;0.00
73687;PMS7003;62257;48.376;-4.378;2023-02-04T04:47:53;3.00;0.00;0.00
73687;PMS7003;62257;48.376;-4.378;2023-02-04T04:50:18;0.25;0.25;0.00
73687;PMS7003;62257;48.376;-4.378;2023-02-04T04:52:44;0.00;0.00;0.00
73687;PMS7003;62257;48.376;-4.378;2023-02-04T04:55:09;2.00;0.75;0.00
73687;PMS7003;62257;48.376;-4.378;2023-02-04T04:57:34;0.00;0.00;0.00
73687;PMS7003;62257;48.376;-4.378;2023-02-04T05:00:00;0.00;0.00;0.00
73687;PMS7003;62257;48.376;-4.378;2023-02-04T05:02:25;0.00;0.00;0.00
73687;PMS7003;62257;48.376;-4.378;2023-02-04T05:04:50;0.75;0.75;0.00
73687;PMS7003;62257;48.376;-4.378;2023-02-04T05:07:15;2.50;0.00;0.00
73687;PMS7003;62257;48.376;-4.378;2023-02-04T05:09:41;1.75;0.00;0.00
73687;PMS7003;62257;48.376;-4.378;2023-02-04T05:12:06;2.00;0.75;0.00
73687;PMS7003;62257;48.376;-4.378;2023-02-04T05:14:31;0.50;0.00;0.00
73687;PMS7003;62257;48.376;-4.378;2023-02-04T05:16:57;1.00;1.00;1.00
73687;PMS7003;62257;48.376;-4.378;2023-02-04T05:19:22;0.00;0.00;0.00
73687;PMS7003;62257;48.376;-4.378;2023-02-04T05:21:47;0.00;0.00;0.00
73687;PMS7003;62257;48.376;-4.378;2023-02-04T05:24:13;0.25;0.25;0.25
73687;PMS7003;62257;48.376;-4.378;2023-02-04T05:26:38;1.00;1.00;0.00
73687;PMS7003;62257;48.376;-4.378;2023-02-04T05:29:03;0.75;0.75;0.75
73687;PMS7003;62257;48.376;-4.378;2023-02-04T05:31:28;0.00;0.00;0.00
73687;PMS7003;62257;48.376;-4.378;2023-02-04T05:33:54;1.00;1.00;1.00
73687;PMS7003;62257;48.376;-4.378;2023-02-04T05:36:19;3.75;1.00;1.00
73687;PMS7003;62257;48.376;-4.378;2023-02-04T05:38:45;2.00;2.00;1.75
73687;PMS7003;62257;48.376;-4.378;2023-02-04T05:41:10;2.75;2.00;2.00
73687;PMS7003;62257;48.376;-4.378;2023-02-04T05:43:36;2.75;2.75;2.00
73687;PMS7003;62257;48.376;-4.378;2023-02-04T05:46:01;3.00;3.00;2.25
73687;PMS7003;62257;48.376;-4.378;2023-02-04T05:48:26;4.75;4.00;3.75
73687;PMS7003;62257;48.376;-4.378;2023-02-04T05:50:51;2.50;2.50;2.00
73687;PMS7003;62257;48.376;-4.378;2023-02-04T05:53:17;1.50;0.50;0.25
73687;PMS7003;62257;48.376;-4.378;2023-02-04T05:55:42;4.75;3.00;2.00
73687;PMS7003;62257;48.376;-4.378;2023-02-04T05:58:07;2.75;2.00;1.75
73687;PMS7003;62257;48.376;-4.378;2023-02-04T06:00:33;4.25;2.50;2.25
73687;PMS7003;62257;48.376;-4.378;2023-02-04T06:02:58;4.25;4.00;3.50
73687;PMS7003;62257;48.376;-4.378;2023-02-04T06:05:23;4.00;3.00;3.00
73687;PMS7003;62257;48.376;-4.378;2023-02-04T06:07:49;1.00;1.00;1.00
73687;PMS7003;62257;48.376;-4.378;2023-02-04T06:10:14;14.00;11.25;8.75
73687;PMS7003;62257;48.376;-4.378;2023-02-04T06:12:39;3.50;3.50;3.00
73687;PMS7003;62257;48.376;-4.378;2023-02-04T06:15:05;3.00;3.00;2.00
73687;PMS7003;62257;48.376;-4.378;2023-02-04T06:17:30;3.25;2.00;2.00
73687;PMS7003;62257;48.376;-4.378;2023-02-04T06:19:55;2.00;2.00;1.25
73687;PMS7003;62257;48.376;-4.378;2023-02-04T06:22:21;15.00;9.00;7.50
73687;PMS7003;62257;48.376;-4.378;2023-02-04T06:24:48;4.75;3.00;2.00
73687;PMS7003;62257;48.376;-4.378;2023-02-04T06:27:13;3.00;3.00;2.25
73687;PMS7003;62257;48.376;-4.378;2023-02-04T06:29:42;8.75;8.25;7.25
73687;PMS7003;62257;48.376;-4.378;2023-02-04T06:32:07;2.25;2.25;2.00
73687;PMS7003;62257;48.376;-4.378;2023-02-04T06:34:33;2.00;2.00;1.75
73687;PMS7003;62257;48.376;-4.378;2023-02-04T06:36:58;3.00;2.75;2.00
73687;PMS7003;62257;48.376;-4.378;2023-02-04T06:39:23;3.00;2.00;2.00
73687;PMS7003;62257;48.376;-4.378;2023-02-04T06:41:48;4.00;3.00;3.00
73687;PMS7003;62257;48.376;-4.378;2023-02-04T06:44:14;3.75;2.00;2.00
73687;PMS7003;62257;48.376;-4.378;2023-02-04T06:46:39;2.00;2.00;2.00
73687;PMS7003;62257;48.376;-4.378;2023-02-04T06:49:04;3.00;2.00;1.50
73687;PMS7003;62257;48.376;-4.378;2023-02-04T06:51:29;5.75;4.50;3.75
73687;PMS7003;62257;48.376;-4.378;2023-02-04T06:53:55;4.75;4.75;3.00
73687;PMS7003;62257;48.376;-4.378;2023-02-04T06:56:20;5.75;4.50;3.00
73687;PMS7003;62257;48.376;-4.378;2023-02-04T06:58:45;3.00;3.00;3.00
73687;PMS7003;62257;48.376;-4.378;2023-02-04T07:01:11;5.50;2.00;2.00
73687;PMS7003;62257;48.376;-4.378;2023-02-04T07:03:36;6.75;4.50;4.00
73687;PMS7003;62257;48.376;-4.378;2023-02-04T07:06:01;4.50;3.25;2.50
73687;PMS7003;62257;48.376;-4.378;2023-02-04T07:08:26;6.00;4.50;3.75
73687;PMS7003;62257;48.376;-4.378;2023-02-04T07:10:52;2.50;2.50;2.00
73687;PMS7003;62257;48.376;-4.378;2023-02-04T07:13:17;3.00;3.00;3.00
73687;PMS7003;62257;48.376;-4.378;2023-02-04T07:15:42;3.50;2.00;2.00
73687;PMS7003;62257;48.376;-4.378;2023-02-04T07:18:07;5.00;3.25;3.00
73687;PMS7003;62257;48.376;-4.378;2023-02-04T07:20:33;4.00;3.00;2.00
73687;PMS7003;62257;48.376;-4.378;2023-02-04T07:22:58;3.00;3.00;2.25
73687;PMS7003;62257;48.376;-4.378;2023-02-04T07:25:23;9.25;7.00;5.25
73687;PMS7003;62257;48.376;-4.378;2023-02-04T07:27:48;5.75;4.50;3.50
73687;PMS7003;62257;48.376;-4.378;2023-02-04T07:30:14;4.75;3.50;2.75
73687;PMS7003;62257;48.376;-4.378;2023-02-04T07:32:39;14.00;8.75;7.00
73687;PMS7003;62257;48.376;-4.378;2023-02-04T07:35:05;5.50;4.75;4.00
73687;PMS7003;62257;48.376;-4.378;2023-02-04T07:37:30;2.25;2.25;2.00
73687;PMS7003;62257;48.376;-4.378;2023-02-04T07:39:55;4.00;2.50;2.50
73687;PMS7003;62257;48.376;-4.378;2023-02-04T07:42:20;4.00;4.00;3.00
73687;PMS7003;62257;48.376;-4.378;2023-02-04T07:44:46;5.00;5.00;4.00
73687;PMS7003;62257;48.376;-4.378;2023-02-04T07:47:11;2.75;2.75;2.00
73687;PMS7003;62257;48.376;-4.378;2023-02-04T07:49:36;3.75;3.75;3.00
73687;PMS7003;62257;48.376;-4.378;2023-02-04T07:52:02;4.00;4.00;3.00
73687;PMS7003;62257;48.376;-4.378;2023-02-04T07:54:27;8.25;5.50;5.00
73687;PMS7003;62257;48.376;-4.378;2023-02-04T07:56:52;7.25;7.00;5.00
73687;PMS7003;62257;48.376;-4.378;2023-02-04T07:59:17;12.75;10.00;7.75
73687;PMS7003;62257;48.376;-4.378;2023-02-04T08:01:43;9.00;8.25;7.25
73687;PMS7003;62257;48.376;-4.378;2023-02-04T08:04:08;8.00;6.00;4.00
73687;PMS7003;62257;48.376;-4.378;2023-02-04T08:06:33;7.25;5.25;5.00
73687;PMS7003;62257;48.376;-4.378;2023-02-04T08:08:59;8.00;7.50;5.00
73687;PMS7003;62257;48.376;-4.378;2023-02-04T08:11:24;10.00;8.00;7.00
73687;PMS7003;62257;48.376;-4.378;2023-02-04T08:13:51;7.25;5.00;4.00
73687;PMS7003;62257;48.376;-4.378;2023-02-04T08:16:16;7.75;5.00;4.25
73687;PMS7003;62257;48.376;-4.378;2023-02-04T08:18:41;7.75;7.50;5.25
73687;PMS7003;62257;48.376;-4.378;2023-02-04T08:21:07;5.00;5.00;4.50
73687;PMS7003;62257;48.376;-4.378;2023-02-04T08:23:33;5.25;5.25;4.00
73687;PMS7003;62257;48.376;-4.378;2023-02-04T08:25:58;5.75;5.00;4.00
73687;PMS7003;62257;48.376;-4.378;2023-02-04T08:28:24;10.00;7.00;4.75
73687;PMS7003;62257;48.376;-4.378;2023-02-04T08:30:49;5.00;5.00;4.50
73687;PMS7003;62257;48.376;-4.378;2023-02-04T08:33:14;8.00;5.75;4.00
73687;PMS7003;62257;48.376;-4.378;2023-02-04T08:35:40;4.00;3.75;3.00
73687;PMS7003;62257;48.376;-4.378;2023-02-04T08:38:05;6.00;5.00;4.00
73687;PMS7003;62257;48.376;-4.378;2023-02-04T08:40:30;6.50;5.00;4.00
73687;PMS7003;62257;48.376;-4.378;2023-02-04T08:42:55;7.25;7.00;6.00
73687;PMS7003;62257;48.376;-4.378;2023-02-04T08:45:21;7.50;4.00;3.00
73687;PMS7003;62257;48.376;-4.378;2023-02-04T08:47:46;13.00;12.25;9.25
73687;PMS7003;62257;48.376;-4.378;2023-02-04T08:50:11;4.00;4.00;4.00
73687;PMS7003;62257;48.376;-4.378;2023-02-04T08:52:37;8.00;6.25;4.75
73687;PMS7003;62257;48.376;-4.378;2023-02-04T08:55:02;6.50;4.75;3.75
73687;PMS7003;62257;48.376;-4.378;2023-02-04T08:57:28;7.75;7.00;5.00
73687;PMS7003;62257;48.376;-4.378;2023-02-04T08:59:53;7.50;7.00;5.25
73687;PMS7003;62257;48.376;-4.378;2023-02-04T09:02:19;6.25;6.25;5.00
73687;PMS7003;62257;48.376;-4.378;2023-02-04T09:04:44;7.00;7.00;5.00
73687;PMS7003;62257;48.376;-4.378;2023-02-04T09:07:09;5.00;5.00;4.00
73687;PMS7003;62257;48.376;-4.378;2023-02-04T09:09:34;6.50;6.50;5.00
73687;PMS7003;62257;48.376;-4.378;2023-02-04T09:12:00;5.25;5.00;4.50
73687;PMS7003;62257;48.376;-4.378;2023-02-04T09:14:26;7.75;7.75;4.75
73687;PMS7003;62257;48.376;-4.378;2023-02-04T09:16:51;4.75;4.75;4.00
73687;PMS7003;62257;48.376;-4.378;2023-02-04T09:19:16;3.50;3.00;2.00
73687;PMS7003;62257;48.376;-4.378;2023-02-04T09:21:47;7.00;6.25;5.00
73687;PMS7003;62257;48.376;-4.378;2023-02-04T09:24:13;8.00;6.00;5.00
73687;PMS7003;62257;48.376;-4.378;2023-02-04T09:26:38;14.25;11.50;8.25
73687;PMS7003;62257;48.376;-4.378;2023-02-04T09:29:03;11.50;9.75;7.50
73687;PMS7003;62257;48.376;-4.378;2023-02-04T09:31:28;7.00;5.50;4.50
73687;PMS7003;62257;48.376;-4.378;2023-02-04T09:33:54;7.00;5.00;4.00
73687;PMS7003;62257;48.376;-4.378;2023-02-04T09:36:19;8.50;7.00;5.00
73687;PMS7003;62257;48.376;-4.378;2023-02-04T09:38:44;5.75;5.75;5.00
73687;PMS7003;62257;48.376;-4.378;2023-02-04T09:41:10;8.50;8.50;7.00
73687;PMS7003;62257;48.376;-4.378;2023-02-04T09:43:40;18.00;16.00;12.00
73687;PMS7003;62257;48.376;-4.378;2023-02-04T09:46:08;16.00;12.00;10.50
73687;PMS7003;62257;48.376;-4.378;2023-02-04T09:48:37;11.25;11.00;8.75
73687;PMS7003;62257;48.376;-4.378;2023-02-04T09:51:03;28.00;28.00;20.25
73687;PMS7003;62257;48.376;-4.378;2023-02-04T09:53:29;9.50;9.50;8.25
73687;PMS7003;62257;48.376;-4.378;2023-02-04T09:55:55;9.50;9.00;8.00
73687;PMS7003;62257;48.376;-4.378;2023-02-04T09:58:21;14.25;11.00;8.00
73687;PMS7003;62257;48.376;-4.378;2023-02-04T10:00:48;11.50;9.00;6.75
73687;PMS7003;62257;48.376;-4.378;2023-02-04T10:03:16;11.00;10.00;8.00
73687;PMS7003;62257;48.376;-4.378;2023-02-04T10:05:43;23.50;22.25;13.75
73687;PMS7003;62257;48.376;-4.378;2023-02-04T10:08:16;22.75;15.25;12.00
73687;PMS7003;62257;48.376;-4.378;2023-02-04T10:10:43;15.75;11.75;9.50
73687;PMS7003;62257;48.376;-4.378;2023-02-04T10:13:13;9.00;6.25;5.00
73687;PMS7003;62257;48.376;-4.378;2023-02-04T10:15:39;10.00;10.00;7.25
73687;PMS7003;62257;48.376;-4.378;2023-02-04T10:18:05;7.50;7.50;6.00
73687;PMS7003;62257;48.376;-4.378;2023-02-04T10:20:31;9.00;5.75;4.75
73687;PMS7003;62257;48.376;-4.378;2023-02-04T10:22:57;12.50;10.00;8.25
73687;PMS7003;62257;48.376;-4.378;2023-02-04T10:25:23;9.25;6.50;5.75
73687;PMS7003;62257;48.376;-4.378;2023-02-04T10:27:53;9.00;7.75;5.25
73687;PMS7003;62257;48.376;-4.378;2023-02-04T10:30:29;7.75;7.00;5.00
73687;PMS7003;62257;48.376;-4.378;2023-02-04T10:32:59;5.25;4.00;3.00
73687;PMS7003;62257;48.376;-4.378;2023-02-04T10:35:25;6.00;5.50;5.00
73687;PMS7003;62257;48.376;-4.378;2023-02-04T10:38:04;5.25;5.25;4.00
73687;PMS7003;62257;48.376;-4.378;2023-02-04T10:40:30;7.75;6.75;5.25
73687;PMS7003;62257;48.376;-4.378;2023-02-04T10:42:56;12.00;11.50;10.75
73687;PMS7003;62257;48.376;-4.378;2023-02-04T10:45:25;14.50;11.00;7.00
73687;PMS7003;62257;48.376;-4.378;2023-02-04T10:47:51;6.25;5.00;4.50
73687;PMS7003;62257;48.376;-4.378;2023-02-04T10:50:17;8.75;7.00;6.00
73687;PMS7003;62257;48.376;-4.378;2023-02-04T10:52:44;5.75;5.75;5.00
73687;PMS7003;62257;48.376;-4.378;2023-02-04T10:55:12;5.00;5.00;4.00
73687;PMS7003;62257;48.376;-4.378;2023-02-04T10:57:39;9.50;7.00;6.00
73687;PMS7003;62257;48.376;-4.378;2023-02-04T11:00:06;6.75;6.75;5.75
73687;PMS7003;62257;48.376;-4.378;2023-02-04T11:02:47;7.75;6.00;4.25
73687;PMS7003;62257;48.376;-4.378;2023-02-04T11:05:14;7.75;6.25;4.75
73687;PMS7003;62257;48.376;-4.378;2023-02-04T11:07:40;3.50;3.50;3.00
73687;PMS7003;62257;48.376;-4.378;2023-02-04T11:10:05;4.00;4.00;3.25
73687;PMS7003;62257;48.376;-4.378;2023-02-04T11:12:39;4.25;4.00;4.00
73687;PMS7003;62257;48.376;-4.378;2023-02-04T11:15:05;7.25;4.25;3.50
73687;PMS7003;62257;48.376;-4.378;2023-02-04T11:17:31;6.00;6.00;5.00
73687;PMS7003;62257;48.376;-4.378;2023-02-04T11:19:57;6.75;5.75;5.00
73687;PMS7003;62257;48.376;-4.378;2023-02-04T11:22:34;3.50;3.50;3.00
73687;PMS7003;62257;48.376;-4.378;2023-02-04T11:25:00;14.75;11.50;8.00
73687;PMS7003;62257;48.376;-4.378;2023-02-04T11:27:35;12.25;10.75;8.00
73687;PMS7003;62257;48.376;-4.378;2023-02-04T11:30:18;11.00;8.50;7.00
73687;PMS7003;62257;48.376;-4.378;2023-02-04T11:32:54;4.50;4.50;3.50
73687;PMS7003;62257;48.376;-4.378;2023-02-04T11:35:24;7.25;7.25;5.25
73687;PMS7003;62257;48.376;-4.378;2023-02-04T11:37:49;6.50;6.50;6.00
73687;PMS7003;62257;48.376;-4.378;2023-02-04T11:42:49;5.50;5.50;4.75
73687;PMS7003;62257;48.376;-4.378;2023-02-04T11:45:22;6.75;6.50;4.50
73687;PMS7003;62257;48.376;-4.378;2023-02-04T11:47:49;9.25;7.25;5.50
73687;PMS7003;62257;48.376;-4.378;2023-02-04T11:50:21;6.00;6.00;5.00
73687;PMS7003;62257;48.376;-4.378;2023-02-04T11:52:48;7.50;6.00;5.00
73687;PMS7003;62257;48.376;-4.378;2023-02-04T11:55:14;7.50;5.25;4.75
73687;PMS7003;62257;48.376;-4.378;2023-02-04T11:57:40;5.25;5.25;4.25
73687;PMS7003;62257;48.376;-4.378;2023-02-04T12:00:16;5.00;5.00;4.25
73687;PMS7003;62257;48.376;-4.378;2023-02-04T12:02:46;7.25;6.00;5.00
73687;PMS7003;62257;48.376;-4.378;2023-02-04T12:05:17;6.75;6.00;5.00
73687;PMS7003;62257;48.376;-4.378;2023-02-04T12:07:44;5.00;5.00;4.50
73687;PMS7003;62257;48.376;-4.378;2023-02-04T12:10:32;6.75;5.75;5.00
73687;PMS7003;62257;48.376;-4.378;2023-02-04T12:12:57;8.00;7.00;6.25
73687;PMS7003;62257;48.376;-4.378;2023-02-04T12:15:33;8.50;7.75;6.25
73687;PMS7003;62257;48.376;-4.378;2023-02-04T12:18:03;7.00;7.00;4.25
73687;PMS7003;62257;48.376;-4.378;2023-02-04T12:20:36;4.75;4.75;4.75
73687;PMS7003;62257;48.376;-4.378;2023-02-04T12:23:01;4.75;4.75;4.00
73687;PMS7003;62257;48.376;-4.378;2023-02-04T12:25:27;10.00;8.00;5.75
73687;PMS7003;62257;48.376;-4.378;2023-02-04T12:27:53;6.25;4.25;4.00
73687;PMS7003;62257;48.376;-4.378;2023-02-04T12:30:20;8.00;4.50;3.75
73687;PMS7003;62257;48.376;-4.378;2023-02-04T12:32:46;6.50;4.50;4.00
73687;PMS7003;62257;48.376;-4.378;2023-02-04T12:35:11;4.75;4.00;3.00
73687;PMS7003;62257;48.376;-4.378;2023-02-04T12:37:37;6.25;5.00;4.00
73687;PMS7003;62257;48.376;-4.378;2023-02-04T12:40:02;4.50;4.25;4.25
73687;PMS7003;62257;48.376;-4.378;2023-02-04T12:42:28;5.00;5.00;4.50
73687;PMS7003;62257;48.376;-4.378;2023-02-04T12:44:53;5.50;4.75;3.00
73687;PMS7003;62257;48.376;-4.378;2023-02-04T12:47:19;3.25;3.25;3.25
73687;PMS7003;62257;48.376;-4.378;2023-02-04T12:49:44;7.50;7.00;5.75
73687;PMS7003;62257;48.376;-4.378;2023-02-04T12:52:10;9.25;7.00;5.00
73687;PMS7003;62257;48.376;-4.378;2023-02-04T12:54:36;7.50;5.25;4.25
73687;PMS7003;62257;48.376;-4.378;2023-02-04T12:57:01;4.00;4.00;4.00
73687;PMS7003;62257;48.376;-4.378;2023-02-04T12:59:27;5.75;5.00;4.00
73687;PMS7003;62257;48.376;-4.378;2023-02-04T13:01:52;6.75;6.75;5.00
73687;PMS7003;62257;48.376;-4.378;2023-02-04T13:04:18;12.75;9.00;6.50
73687;PMS7003;62257;48.376;-4.378;2023-02-04T13:06:43;4.00;4.00;3.00
73687;PMS7003;62257;48.376;-4.378;2023-02-04T13:09:09;4.00;4.00;3.00
73687;PMS7003;62257;48.376;-4.378;2023-02-04T13:11:34;5.75;4.25;3.00
73687;PMS7003;62257;48.376;-4.378;2023-02-04T13:14:00;4.00;3.00;3.00
73687;PMS7003;62257;48.376;-4.378;2023-02-04T13:16:25;6.00;6.00;4.75
73687;PMS7003;62257;48.376;-4.378;2023-02-04T13:18:51;6.00;5.50;3.75
73687;PMS7003;62257;48.376;-4.378;2023-02-04T13:21:16;4.00;4.00;4.00
73687;PMS7003;62257;48.376;-4.378;2023-02-04T13:23:42;7.00;5.00;4.00
73687;PMS7003;62257;48.376;-4.378;2023-02-04T13:26:07;9.50;8.75;7.50
73687;PMS7003;62257;48.376;-4.378;2023-02-04T13:28:33;6.25;4.25;4.00
73687;PMS7003;62257;48.376;-4.378;2023-02-04T13:30:59;5.50;5.50;5.00
73687;PMS7003;62257;48.376;-4.378;2023-02-04T13:33:25;5.25;5.25;5.00
73687;PMS7003;62257;48.376;-4.378;2023-02-04T13:35:50;6.00;6.00;5.00
73687;PMS7003;62257;48.376;-4.378;2023-02-04T13:38:16;9.00;6.25;5.00
73687;PMS7003;62257;48.376;-4.378;2023-02-04T13:40:41;3.50;3.50;3.00
73687;PMS7003;62257;48.376;-4.378;2023-02-04T13:43:06;6.00;4.00;3.00
73687;PMS7003;62257;48.376;-4.378;2023-02-04T13:45:32;9.00;7.75;6.00
73687;PMS7003;62257;48.376;-4.378;2023-02-04T13:47:57;5.25;4.75;4.25
73687;PMS7003;62257;48.376;-4.378;2023-02-04T13:50:23;21.00;17.00;14.00
73687;PMS7003;62257;48.376;-4.378;2023-02-04T13:52:48;10.75;10.75;8.75
73687;PMS7003;62257;48.376;-4.378;2023-02-04T13:55:14;19.00;15.00;9.50
73687;PMS7003;62257;48.376;-4.378;2023-02-04T13:57:39;7.00;6.50;6.00
73687;PMS7003;62257;48.376;-4.378;2023-02-04T14:00:05;7.00;4.25;4.00
73687;PMS7003;62257;48.376;-4.378;2023-02-04T14:02:31;11.50;11.00;9.00
73687;PMS7003;62257;48.376;-4.378;2023-02-04T14:04:57;5.00;5.00;5.00
73687;PMS7003;62257;48.376;-4.378;2023-02-04T14:07:22;19.50;14.00;10.75